sensor_id;sensor_type;location;lat;lon;timestamp;pressure;altitude;pressure_sealevel;temperature;humidity
29383;BME280;16365;51.598;7.668;2023-03-03T00:01:29;101721.28;;;8.32;43.45
29383;BME280;16365;51.598;7.668;2023-03-03T00:03:58;101713.81;;;8.33;43.22
29383;BME280;16365;51.598;7.668;2023-03-03T00:06:25;101724.88;;;8.33;43.37
29383;BME280;16365;51.598;7.668;2023-03-03T00:08:53;101720.16;;;8.33;43.91
29383;BME280;16365;51.598;7.668;2023-03-03T00:11:21;101711.63;;;8.30;44.06
29383;BME280;16365;51.598;7.668;2023-03-03T00:13:55;101705.56;;;8.28;44.65
29383;BME280;16365;51.598;7.668;2023-03-03T00:16:31;101705.56;;;8.28;44.81
29383;BME280;16365;51.598;7.668;2023-03-03T00:19:02;101706.91;;;8.30;44.05
29383;BME280;16365;51.598;7.668;2023-03-03T00:21:41;101701.69;;;8.29;43.65
29383;BME280;16365;51.598;7.668;2023-03-03T00:26:48;101709.94;;;8.34;44.10
29383;BME280;16365;51.598;7.668;2023-03-03T00:29:26;101715.75;;;8.32;44.51
29383;BME280;16365;51.598;7.668;2023-03-03T00:32:41;101717.41;;;8.33;45.12
29383;BME280;16365;51.598;7.668;2023-03-03T00:35:32;101718.75;;;8.36;44.70
29383;BME280;16365;51.598;7.668;2023-03-03T00:38:11;101713.00;;;8.37;44.88
29383;BME280;16365;51.598;7.668;2023-03-03T00:40:40;101707.16;;;8.39;44.07
29383;BME280;16365;51.598;7.668;2023-03-03T00:43:27;101707.69;;;8.36;45.02
29383;BME280;16365;51.598;7.668;2023-03-03T00:45:59;101703.59;;;8.38;43.60
29383;BME280;16365;51.598;7.668;2023-03-03T00:48:30;101725.38;;;8.40;43.88
29383;BME280;16365;51.598;7.668;2023-03-03T00:51:29;101716.84;;;8.36;44.71
29383;BME280;16365;51.598;7.668;2023-03-03T00:53:58;101726.00;;;8.37;44.26
29383;BME280;16365;51.598;7.668;2023-03-03T00:56:26;101726.81;;;8.37;44.11
29383;BME280;16365;51.598;7.668;2023-03-03T00:58:54;101718.75;;;8.36;43.71
29383;BME280;16365;51.598;7.668;2023-03-03T01:01:20;101712.41;;;8.35;43.92
29383;BME280;16365;51.598;7.668;2023-03-03T01:03:48;101721.50;;;8.36;44.35
29383;BME280;16365;51.598;7.668;2023-03-03T01:06:16;101726.81;;;8.37;44.21
29383;BME280;16365;51.598;7.668;2023-03-03T01:08:42;101735.91;;;8.38;43.32
29383;BME280;16365;51.598;7.668;2023-03-03T01:11:19;101731.50;;;8.37;43.89
29383;BME280;16365;51.598;7.668;2023-03-03T01:13:48;101734.81;;;8.34;44.31
29383;BME280;16365;51.598;7.668;2023-03-03T01:16:19;101733.72;;;8.30;43.56
29383;BME280;16365;51.598;7.668;2023-03-03T01:18:48;101725.47;;;8.24;43.28
29383;BME280;16365;51.598;7.668;2023-03-03T01:21:15;101730.47;;;8.22;43.69
29383;BME280;16365;51.598;7.668;2023-03-03T01:23:42;101721.94;;;8.19;44.13
29383;BME280;16365;51.598;7.668;2023-03-03T01:26:12;101716.16;;;8.15;44.78
29383;BME280;16365;51.598;7.668;2023-03-03T01:28:41;101712.28;;;8.16;44.47
29383;BME280;16365;51.598;7.668;2023-03-03T01:31:08;101699.56;;;8.15;43.65
29383;BME280;16365;51.598;7.668;2023-03-03T01:33:35;101706.22;;;8.14;44.32
29383;BME280;16365;51.598;7.668;2023-03-03T01:36:04;101700.69;;;8.14;44.28
29383;BME280;16365;51.598;7.668;2023-03-03T01:38:37;101708.97;;;8.14;44.88
29383;BME280;16365;51.598;7.668;2023-03-03T01:41:05;101724.44;;;8.15;44.05
29383;BME280;16365;51.598;7.668;2023-03-03T01:43:32;101716.44;;;8.14;43.90
29383;BME280;16365;51.598;7.668;2023-03-03T01:51:01;101722.53;;;8.11;44.80
29383;BME280;16365;51.598;7.668;2023-03-03T01:53:36;101716.19;;;8.10;45.23
29383;BME280;16365;51.598;7.668;2023-03-03T01:56:07;101702.09;;;8.12;44.98
29383;BME280;16365;51.598;7.668;2023-03-03T01:58:43;101700.69;;;8.14;45.05
29383;BME280;16365;51.598;7.668;2023-03-03T02:01:31;101696.81;;;8.15;44.76
29383;BME280;16365;51.598;7.668;2023-03-03T02:04:00;101702.59;;;8.19;44.23
29383;BME280;16365;51.598;7.668;2023-03-03T02:06:36;101696.53;;;8.17;45.08
29383;BME280;16365;51.598;7.668;2023-03-03T02:09:11;101697.91;;;8.19;44.39
29383;BME280;16365;51.598;7.668;2023-03-03T02:11:44;101702.59;;;8.19;44.50
29383;BME280;16365;51.598;7.668;2023-03-03T02:14:17;101707.31;;;8.18;44.15
29383;BME280;16365;51.598;7.668;2023-03-03T02:16:52;101716.41;;;8.19;44.14
29383;BME280;16365;51.598;7.668;2023-03-03T02:19:28;101713.38;;;8.15;45.00
29383;BME280;16365;51.598;7.668;2023-03-03T02:22:01;101714.22;;;8.16;44.38
29383;BME280;16365;51.598;7.668;2023-03-03T02:24:34;101715.88;;;8.12;44.72
29383;BME280;16365;51.598;7.668;2023-03-03T02:27:02;101716.19;;;8.10;43.86
29383;BME280;16365;51.598;7.668;2023-03-03T02:29:29;101707.38;;;8.08;44.64
29383;BME280;16365;51.598;7.668;2023-03-03T02:32:02;101711.78;;;8.09;44.33
29383;BME280;16365;51.598;7.668;2023-03-03T02:34:45;101705.69;;;8.07;45.03
29383;BME280;16365;51.598;7.668;2023-03-03T02:37:18;101711.50;;;8.11;44.57
29383;BME280;16365;51.598;7.668;2023-03-03T02:39:45;101714.25;;;8.11;44.23
29383;BME280;16365;51.598;7.668;2023-03-03T02:42:19;101706.25;;;8.09;45.27
29383;BME280;16365;51.598;7.668;2023-03-03T02:44:49;101715.38;;;8.10;44.67
29383;BME280;16365;51.598;7.668;2023-03-03T02:47:19;101710.13;;;8.08;44.45
29383;BME280;16365;51.598;7.668;2023-03-03T02:49:46;101710.41;;;8.07;44.67
29383;BME280;16365;51.598;7.668;2023-03-03T02:52:21;101714.28;;;8.06;44.31
29383;BME280;16365;51.598;7.668;2023-03-03T02:54:47;101716.53;;;8.04;43.96
29383;BME280;16365;51.598;7.668;2023-03-03T02:57:17;101707.97;;;8.00;44.67
29383;BME280;16365;51.598;7.668;2023-03-03T02:59:44;101713.50;;;8.00;44.15
29383;BME280;16365;51.598;7.668;2023-03-03T03:02:12;101707.44;;;7.98;44.29
29383;BME280;16365;51.598;7.668;2023-03-03T03:04:40;101707.72;;;7.96;44.69
29383;BME280;16365;51.598;7.668;2023-03-03T03:07:09;101709.94;;;7.94;44.58
29383;BME280;16365;51.598;7.668;2023-03-03T03:09:37;101710.25;;;7.93;44.45
29383;BME280;16365;51.598;7.668;2023-03-03T03:12:14;101704.72;;;7.93;44.50
29383;BME280;16365;51.598;7.668;2023-03-03T03:14:41;101695.59;;;7.92;45.02
29383;BME280;16365;51.598;7.668;2023-03-03T03:17:07;101696.97;;;7.95;45.21
29383;BME280;16365;51.598;7.668;2023-03-03T03:19:34;101707.72;;;7.96;45.17
29383;BME280;16365;51.598;7.668;2023-03-03T03:22:01;101708.53;;;7.97;45.28
29383;BME280;16365;51.598;7.668;2023-03-03T03:24:28;101720.13;;;7.99;45.39
29383;BME280;16365;51.598;7.668;2023-03-03T03:26:55;101723.16;;;8.03;44.82
29383;BME280;16365;51.598;7.668;2023-03-03T03:29:22;101721.75;;;8.05;44.60
29383;BME280;16365;51.598;7.668;2023-03-03T03:31:48;101726.16;;;8.06;44.45
29383;BME280;16365;51.598;7.668;2023-03-03T03:34:15;101726.16;;;8.06;44.83
29383;BME280;16365;51.598;7.668;2023-03-03T03:36:43;101733.91;;;8.04;44.30
29383;BME280;16365;51.598;7.668;2023-03-03T03:39:12;101736.13;;;8.02;44.61
29383;BME280;16365;51.598;7.668;2023-03-03T03:41:39;101730.88;;;8.01;44.42
29383;BME280;16365;51.598;7.668;2023-03-03T03:44:06;101724.84;;;7.98;45.01
29383;BME280;16365;51.598;7.668;2023-03-03T03:46:32;101719.56;;;7.97;44.61
29383;BME280;16365;51.598;7.668;2023-03-03T03:48:59;101725.41;;;7.95;45.33
29383;BME280;16365;51.598;7.668;2023-03-03T03:51:31;101733.38;;;7.97;45.00
29383;BME280;16365;51.598;7.668;2023-03-03T03:54:03;101727.88;;;7.97;45.18
29383;BME280;16365;51.598;7.668;2023-03-03T03:56:30;101726.47;;;7.99;44.60
29383;BME280;16365;51.598;7.668;2023-03-03T03:58:56;101725.66;;;7.99;44.87
29383;BME280;16365;51.598;7.668;2023-03-03T04:01:25;101728.41;;;7.99;45.14
29383;BME280;16365;51.598;7.668;2023-03-03T04:03:52;101724.53;;;8.00;44.82
29383;BME280;16365;51.598;7.668;2023-03-03T04:06:19;101725.38;;;8.01;45.26
29383;BME280;16365;51.598;7.668;2023-03-03T04:08:46;101726.19;;;8.01;45.14
29383;BME280;16365;51.598;7.668;2023-03-03T04:11:13;101727.00;;;8.02;45.13
29383;BME280;16365;51.598;7.668;2023-03-03T04:13:41;101729.50;;;8.03;45.45
29383;BME280;16365;51.598;7.668;2023-03-03T04:16:09;101728.91;;;8.06;45.00
29383;BME280;16365;51.598;7.668;2023-03-03T04:18:37;101738.56;;;8.09;45.28
29383;BME280;16365;51.598;7.668;2023-03-03T04:21:11;101739.69;;;8.08;44.78
29383;BME280;16365;51.598;7.668;2023-03-03T04:23:37;101738.56;;;8.09;44.75
29383;BME280;16365;51.598;7.668;2023-03-03T04:26:04;101737.75;;;8.08;44.55
29383;BME280;16365;51.598;7.668;2023-03-03T04:28:31;101744.66;;;8.06;44.54
29383;BME280;16365;51.598;7.668;2023-03-03T04:31:00;101741.38;;;8.04;44.97
29383;BME280;16365;51.598;7.668;2023-03-03T04:33:27;101742.19;;;8.04;44.48
29383;BME280;16365;51.598;7.668;2023-03-03T04:35:56;101725.91;;;8.03;44.88
29383;BME280;16365;51.598;7.668;2023-03-03T04:38:22;101730.59;;;8.02;45.30
29383;BME280;16365;51.598;7.668;2023-03-03T04:40:48;101736.13;;;8.02;45.10
29383;BME280;16365;51.598;7.668;2023-03-03T04:43:15;101735.84;;;8.04;44.85
29383;BME280;16365;51.598;7.668;2023-03-03T04:45:42;101730.84;;;8.06;45.00
29383;BME280;16365;51.598;7.668;2023-03-03T04:48:09;101732.22;;;8.08;45.48
29383;BME280;16365;51.598;7.668;2023-03-03T04:50:36;101734.69;;;8.10;45.09
29383;BME280;16365;51.598;7.668;2023-03-03T04:53:02;101732.47;;;8.12;45.26
29383;BME280;16365;51.598;7.668;2023-03-03T04:55:29;101737.72;;;8.13;44.85
29383;BME280;16365;51.598;7.668;2023-03-03T04:57:59;101739.38;;;8.14;45.22
29383;BME280;16365;51.598;7.668;2023-03-03T05:00:27;101742.13;;;8.14;45.03
29383;BME280;16365;51.598;7.668;2023-03-03T05:02:53;101744.88;;;8.14;45.52
29383;BME280;16365;51.598;7.668;2023-03-03T05:05:22;101737.72;;;8.13;45.74
29383;BME280;16365;51.598;7.668;2023-03-03T05:07:48;101740.19;;;8.15;45.64
29383;BME280;16365;51.598;7.668;2023-03-03T05:10:15;101734.66;;;8.15;45.13
29383;BME280;16365;51.598;7.668;2023-03-03T05:12:42;101741.00;;;8.15;45.04
29383;BME280;16365;51.598;7.668;2023-03-03T05:15:09;101745.19;;;8.13;44.72
29383;BME280;16365;51.598;7.668;2023-03-03T05:17:36;101751.28;;;8.10;44.37
29383;BME280;16365;51.598;7.668;2023-03-03T05:20:04;101754.59;;;8.07;44.59
29383;BME280;16365;51.598;7.668;2023-03-03T05:22:33;101757.13;;;8.03;44.27
29383;BME280;16365;51.598;7.668;2023-03-03T05:25:00;101755.75;;;8.01;44.39
29383;BME280;16365;51.598;7.668;2023-03-03T05:27:26;101751.63;;;7.98;45.01
29383;BME280;16365;51.598;7.668;2023-03-03T05:29:53;101751.06;;;7.96;44.97
29383;BME280;16365;51.598;7.668;2023-03-03T05:32:19;101741.16;;;7.95;44.93
29383;BME280;16365;51.598;7.668;2023-03-03T05:34:46;101744.19;;;7.93;44.86
29383;BME280;16365;51.598;7.668;2023-03-03T05:37:12;101738.41;;;7.90;44.85
29383;BME280;16365;51.598;7.668;2023-03-03T05:39:40;101736.78;;;7.89;44.97
29383;BME280;16365;51.598;7.668;2023-03-03T05:42:07;101740.09;;;7.86;45.10
29383;BME280;16365;51.598;7.668;2023-03-03T05:44:34;101732.91;;;7.85;45.02
29383;BME280;16365;51.598;7.668;2023-03-03T05:47:01;101738.72;;;7.83;44.61
29383;BME280;16365;51.598;7.668;2023-03-03T05:49:27;101744.53;;;7.82;44.85
29383;BME280;16365;51.598;7.668;2023-03-03T05:51:54;101745.63;;;7.81;45.09
29383;BME280;16365;51.598;7.668;2023-03-03T05:54:20;101748.41;;;7.81;44.64
29383;BME280;16365;51.598;7.668;2023-03-03T05:56:46;101739.59;;;7.79;44.72
29383;BME280;16365;51.598;7.668;2023-03-03T05:59:13;101753.94;;;7.76;44.88
29383;BME280;16365;51.598;7.668;2023-03-03T06:01:40;101748.72;;;7.74;44.50
29383;BME280;16365;51.598;7.668;2023-03-03T06:04:07;101761.13;;;7.71;44.92
29383;BME280;16365;51.598;7.668;2023-03-03T06:06:33;101757.84;;;7.69;45.40
29383;BME280;16365;51.598;7.668;2023-03-03T06:09:00;101762.53;;;7.69;44.98
29383;BME280;16365;51.598;7.668;2023-03-03T06:11:26;101762.53;;;7.69;44.79
29383;BME280;16365;51.598;7.668;2023-03-03T06:13:53;101763.91;;;7.71;45.21
29383;BME280;16365;51.598;7.668;2023-03-03T06:16:19;101768.31;;;7.72;45.29
29383;BME280;16365;51.598;7.668;2023-03-03T06:18:46;101773.56;;;7.74;45.19
29383;BME280;16365;51.598;7.668;2023-03-03T06:21:12;101774.38;;;7.75;45.42
29383;BME280;16365;51.598;7.668;2023-03-03T06:23:39;101774.38;;;7.75;45.22
29383;BME280;16365;51.598;7.668;2023-03-03T06:26:06;101779.59;;;7.76;44.75
29383;BME280;16365;51.598;7.668;2023-03-03T06:28:32;101787.59;;;7.78;45.25
29383;BME280;16365;51.598;7.668;2023-03-03T06:30:58;101783.19;;;7.77;44.62
29383;BME280;16365;51.598;7.668;2023-03-03T06:33:25;101788.44;;;7.78;45.19
29383;BME280;16365;51.598;7.668;2023-03-03T06:35:53;101788.97;;;7.80;45.11
29383;BME280;16365;51.598;7.668;2023-03-03T06:38:20;101786.75;;;7.82;45.42
29383;BME280;16365;51.598;7.668;2023-03-03T06:40:46;101790.91;;;7.85;44.87
29383;BME280;16365;51.598;7.668;2023-03-03T06:43:13;101796.94;;;7.87;44.87
29383;BME280;16365;51.598;7.668;2023-03-03T06:45:40;101799.44;;;7.88;44.97
29383;BME280;16365;51.598;7.668;2023-03-03T06:48:06;101787.56;;;7.88;44.69
29383;BME280;16365;51.598;7.668;2023-03-03T06:50:33;101796.94;;;7.87;44.79
29383;BME280;16365;51.598;7.668;2023-03-03T06:53:12;101791.72;;;7.85;45.58
29383;BME280;16365;51.598;7.668;2023-03-03T06:55:39;101797.50;;;7.89;45.02
29383;BME280;16365;51.598;7.668;2023-03-03T06:58:16;101798.59;;;7.88;45.52
29383;BME280;16365;51.598;7.668;2023-03-03T07:00:45;101804.38;;;7.91;44.87
29383;BME280;16365;51.598;7.668;2023-03-03T07:03:17;101810.72;;;7.92;44.94
29383;BME280;16365;51.598;7.668;2023-03-03T07:05:44;101811.56;;;7.92;45.05
29383;BME280;16365;51.598;7.668;2023-03-03T07:08:16;101814.59;;;7.91;44.87
29383;BME280;16365;51.598;7.668;2023-03-03T07:10:44;101813.50;;;7.92;44.77
29383;BME280;16365;51.598;7.668;2023-03-03T07:13:26;101817.38;;;7.91;44.85
29383;BME280;16365;51.598;7.668;2023-03-03T07:15:55;101817.06;;;7.92;45.07
29383;BME280;16365;51.598;7.668;2023-03-03T07:20:59;101829.81;;;7.93;45.18
29383;BME280;16365;51.598;7.668;2023-03-03T07:23:52;101829.81;;;7.93;45.74
29383;BME280;16365;51.598;7.668;2023-03-03T07:26:25;101828.69;;;7.94;45.28
29383;BME280;16365;51.598;7.668;2023-03-03T07:29:02;101818.47;;;7.95;44.97
29383;BME280;16365;51.598;7.668;2023-03-03T07:31:39;101832.25;;;7.95;45.08
29383;BME280;16365;51.598;7.668;2023-03-03T07:34:36;101831.97;;;7.96;45.39
29383;BME280;16365;51.598;7.668;2023-03-03T07:37:12;101834.47;;;7.98;45.57
29383;BME280;16365;51.598;7.668;2023-03-03T07:39:44;101837.75;;;8.00;45.26
29383;BME280;16365;51.598;7.668;2023-03-03T07:42:27;101846.06;;;8.00;45.14
29383;BME280;16365;51.598;7.668;2023-03-03T07:44:59;101846.31;;;8.04;44.69
29383;BME280;16365;51.598;7.668;2023-03-03T07:47:30;101849.09;;;8.04;44.63
29383;BME280;16365;51.598;7.668;2023-03-03T07:50:13;101864.81;;;8.03;45.39
29383;BME280;16365;51.598;7.668;2023-03-03T07:52:46;101860.13;;;8.04;44.61
29383;BME280;16365;51.598;7.668;2023-03-03T07:55:53;101861.78;;;8.05;44.68
29383;BME280;16365;51.598;7.668;2023-03-03T08:03:15;101862.06;;;8.03;45.35
29383;BME280;16365;51.598;7.668;2023-03-03T08:05:45;101866.47;;;8.04;45.24
29383;BME280;16365;51.598;7.668;2023-03-03T08:08:34;101877.22;;;8.06;44.91
29383;BME280;16365;51.598;7.668;2023-03-03T08:11:07;101869.22;;;8.09;44.86
29383;BME280;16365;51.598;7.668;2023-03-03T08:13:37;101873.91;;;8.09;45.14
29383;BME280;16365;51.598;7.668;2023-03-03T08:18:39;101872.53;;;8.06;44.72
29383;BME280;16365;51.598;7.668;2023-03-03T08:21:11;101878.34;;;8.05;44.99
29383;BME280;16365;51.598;7.668;2023-03-03T08:23:39;101876.94;;;8.07;44.47
29383;BME280;16365;51.598;7.668;2023-03-03T08:26:06;101878.63;;;8.08;45.04
29383;BME280;16365;51.598;7.668;2023-03-03T08:28:32;101885.78;;;8.09;45.13
29383;BME280;16365;51.598;7.668;2023-03-03T08:30:59;101894.34;;;8.13;45.00
29383;BME280;16365;51.598;7.668;2023-03-03T08:33:42;101893.22;;;8.14;44.48
29383;BME280;16365;51.598;7.668;2023-03-03T08:36:09;101892.94;;;8.15;44.88
29383;BME280;16365;51.598;7.668;2023-03-03T08:38:37;101889.34;;;8.15;44.40
29383;BME280;16365;51.598;7.668;2023-03-03T08:41:04;101886.88;;;8.13;44.29
29383;BME280;16365;51.598;7.668;2023-03-03T08:43:31;101898.19;;;8.12;44.54
29383;BME280;16365;51.598;7.668;2023-03-03T08:46:00;101887.72;;;8.09;44.59
29383;BME280;16365;51.598;7.668;2023-03-03T08:48:28;101889.91;;;8.07;44.26
29383;BME280;16365;51.598;7.668;2023-03-03T08:50:54;101894.09;;;8.04;44.86
29383;BME280;16365;51.598;7.668;2023-03-03T08:53:23;101897.69;;;8.05;44.74
29383;BME280;16365;51.598;7.668;2023-03-03T08:55:50;101894.91;;;8.05;45.58
29383;BME280;16365;51.598;7.668;2023-03-03T08:58:17;101893.81;;;8.06;45.21
29383;BME280;16365;51.598;7.668;2023-03-03T09:00:46;101893.25;;;8.09;44.74
29383;BME280;16365;51.598;7.668;2023-03-03T09:03:16;101891.84;;;8.11;45.19
29383;BME280;16365;51.598;7.668;2023-03-03T09:05:42;101894.34;;;8.13;44.70
29383;BME280;16365;51.598;7.668;2023-03-03T09:08:10;101900.09;;;8.16;44.70
29383;BME280;16365;51.598;7.668;2023-03-03T09:10:36;101899.03;;;8.17;45.08
29383;BME280;16365;51.598;7.668;2023-03-03T09:13:15;101894.56;;;8.16;45.21
29383;BME280;16365;51.598;7.668;2023-03-03T09:15:42;101898.16;;;8.22;44.69
29383;BME280;16365;51.598;7.668;2023-03-03T09:20:45;101905.31;;;8.28;45.03
29383;BME280;16365;51.598;7.668;2023-03-03T09:23:31;101904.19;;;8.29;46.14
29383;BME280;16365;51.598;7.668;2023-03-03T09:28:55;101900.88;;;8.42;44.98
29383;BME280;16365;51.598;7.668;2023-03-03T09:31:37;101911.91;;;8.42;45.32
29383;BME280;16365;51.598;7.668;2023-03-03T09:34:37;101910.25;;;8.46;45.53
29383;BME280;16365;51.598;7.668;2023-03-03T09:37:33;101919.06;;;8.48;45.62
29383;BME280;16365;51.598;7.668;2023-03-03T09:40:28;101918.78;;;8.50;45.08
29383;BME280;16365;51.598;7.668;2023-03-03T09:43:15;101927.31;;;8.54;44.53
29383;BME280;16365;51.598;7.668;2023-03-03T09:49:30;101925.66;;;8.58;45.54
29383;BME280;16365;51.598;7.668;2023-03-03T09:54:38;101923.38;;;8.65;44.79
29383;BME280;16365;51.598;7.668;2023-03-03T09:57:14;101916.75;;;8.71;44.91
29383;BME280;16365;51.598;7.668;2023-03-03T10:00:02;101923.91;;;8.72;44.81
29383;BME280;16365;51.598;7.668;2023-03-03T10:05:36;101925.22;;;8.80;44.11
29383;BME280;16365;51.598;7.668;2023-03-03T10:11:12;101923.31;;;8.80;45.02
29383;BME280;16365;51.598;7.668;2023-03-03T10:16:50;101935.44;;;8.84;45.35
29383;BME280;16365;51.598;7.668;2023-03-03T10:19:40;101931.59;;;8.85;45.05
29383;BME280;16365;51.598;7.668;2023-03-03T10:25:20;101946.19;;;8.91;45.23
29383;BME280;16365;51.598;7.668;2023-03-03T10:31:06;101947.28;;;8.95;44.61
29383;BME280;16365;51.598;7.668;2023-03-03T10:37:00;101959.69;;;8.97;44.30
29383;BME280;16365;51.598;7.668;2023-03-03T10:39:56;101963.03;;;8.99;44.44
29383;BME280;16365;51.598;7.668;2023-03-03T10:48:27;101956.03;;;9.07;44.92
29383;BME280;16365;51.598;7.668;2023-03-03T10:51:47;101951.88;;;9.10;44.16
29383;BME280;16365;51.598;7.668;2023-03-03T10:54:02;101948.53;;;9.13;44.57
29383;BME280;16365;51.598;7.668;2023-03-03T10:56:46;101950.16;;;9.19;44.14
29383;BME280;16365;51.598;7.668;2023-03-03T11:07:49;101947.25;;;9.34;44.26
29383;BME280;16365;51.598;7.668;2023-03-03T11:13:51;101943.03;;;9.42;44.55
29383;BME280;16365;51.598;7.668;2023-03-03T11:22:33;101947.13;;;9.49;43.96
29383;BME280;16365;51.598;7.668;2023-03-03T11:25:35;101942.66;;;9.53;44.42
29383;BME280;16365;51.598;7.668;2023-03-03T11:28:18;101949.50;;;9.61;43.77
29383;BME280;16365;51.598;7.668;2023-03-03T11:33:24;101949.75;;;9.65;44.09
29383;BME280;16365;51.598;7.668;2023-03-03T11:36:06;101946.69;;;9.66;43.67
29383;BME280;16365;51.598;7.668;2023-03-03T11:39:01;101936.72;;;9.65;43.96
29383;BME280;16365;51.598;7.668;2023-03-03T11:41:33;101934.50;;;9.67;43.10
29383;BME280;16365;51.598;7.668;2023-03-03T11:44:16;101931.19;;;9.65;43.26
29383;BME280;16365;51.598;7.668;2023-03-03T11:46:51;101940.88;;;9.68;43.76
29383;BME280;16365;51.598;7.668;2023-03-03T11:49:37;101926.22;;;9.67;43.41
29383;BME280;16365;51.598;7.668;2023-03-03T11:52:27;101925.91;;;9.69;43.28
29383;BME280;16365;51.598;7.668;2023-03-03T12:00:23;101914.78;;;9.74;43.34
29383;BME280;16365;51.598;7.668;2023-03-03T12:05:49;101918.00;;;9.81;43.53
29383;BME280;16365;51.598;7.668;2023-03-03T12:16:12;101914.78;;;9.98;43.07
29383;BME280;16365;51.598;7.668;2023-03-03T12:18:52;101903.41;;;9.99;43.17
29383;BME280;16365;51.598;7.668;2023-03-03T12:24:33;101896.09;;;10.09;43.43
29383;BME280;16365;51.598;7.668;2023-03-03T12:27:33;101892.19;;;10.10;43.24
29383;BME280;16365;51.598;7.668;2023-03-03T12:33:06;101892.44;;;10.13;42.97
29383;BME280;16365;51.598;7.668;2023-03-03T12:35:53;101891.03;;;10.16;42.98
29383;BME280;16365;51.598;7.668;2023-03-03T12:38:50;101892.38;;;10.18;43.19
29383;BME280;16365;51.598;7.668;2023-03-03T12:41:39;101896.22;;;10.22;43.25
29383;BME280;16365;51.598;7.668;2023-03-03T12:47:14;101889.50;;;10.28;42.96
29383;BME280;16365;51.598;7.668;2023-03-03T12:58:30;101891.78;;;10.45;42.73
29383;BME280;16365;51.598;7.668;2023-03-03T13:06:56;101887.00;;;10.51;42.28
29383;BME280;16365;51.598;7.668;2023-03-03T13:19:50;101879.72;;;10.74;42.60
29383;BME280;16365;51.598;7.668;2023-03-03T13:27:51;101863.53;;;10.81;42.21
29383;BME280;16365;51.598;7.668;2023-03-03T13:30:26;101876.81;;;10.84;41.94
29383;BME280;16365;51.598;7.668;2023-03-03T13:33:06;101872.31;;;10.88;41.90
29383;BME280;16365;51.598;7.668;2023-03-03T13:38:13;101868.00;;;10.96;41.75
29383;BME280;16365;51.598;7.668;2023-03-03T13:41:06;101863.28;;;10.96;41.96
29383;BME280;16365;51.598;7.668;2023-03-03T13:43:44;101867.91;;;11.01;42.06
29383;BME280;16365;51.598;7.668;2023-03-03T13:46:40;101864.53;;;11.04;41.78
29383;BME280;16365;51.598;7.668;2023-03-03T13:49:18;101866.69;;;11.07;41.88
29383;BME280;16365;51.598;7.668;2023-03-03T13:52:09;101863.63;;;11.09;41.80
29383;BME280;16365;51.598;7.668;2023-03-03T13:57:43;101855.22;;;11.14;41.72
29383;BME280;16365;51.598;7.668;2023-03-03T14:05:48;101846.06;;;11.13;41.61
29383;BME280;16365;51.598;7.668;2023-03-03T14:11:10;101848.31;;;11.11;41.75
29383;BME280;16365;51.598;7.668;2023-03-03T14:16:45;101838.78;;;11.17;41.53
29383;BME280;16365;51.598;7.668;2023-03-03T14:19:33;101836.53;;;11.19;41.40
29383;BME280;16365;51.598;7.668;2023-03-03T14:25:02;101836.03;;;11.17;41.09
29383;BME280;16365;51.598;7.668;2023-03-03T14:33:28;101819.97;;;11.14;41.16
29383;BME280;16365;51.598;7.668;2023-03-03T14:38:45;101824.47;;;11.10;41.46
29383;BME280;16365;51.598;7.668;2023-03-03T14:41:20;101820.88;;;11.10;41.21
29383;BME280;16365;51.598;7.668;2023-03-03T14:47:00;101815.31;;;11.10;41.29
29383;BME280;16365;51.598;7.668;2023-03-03T14:49:32;101817.19;;;11.14;41.52
29383;BME280;16365;51.598;7.668;2023-03-03T14:54:44;101814.09;;;11.16;41.06
29383;BME280;16365;51.598;7.668;2023-03-03T14:57:14;101811.84;;;11.18;41.56
29383;BME280;16365;51.598;7.668;2023-03-03T15:02:37;101813.91;;;11.26;41.66
29383;BME280;16365;51.598;7.668;2023-03-03T15:05:25;101810.53;;;11.29;41.06
29383;BME280;16365;51.598;7.668;2023-03-03T15:10:36;101808.16;;;11.36;41.34
29383;BME280;16365;51.598;7.668;2023-03-03T15:16:36;101807.16;;;11.46;41.15
29383;BME280;16365;51.598;7.668;2023-03-03T15:21:28;101805.63;;;11.53;41.13
29383;BME280;16365;51.598;7.668;2023-03-03T15:24:02;101795.66;;;11.52;41.04
29383;BME280;16365;51.598;7.668;2023-03-03T15:29:15;101794.84;;;11.52;40.92
29383;BME280;16365;51.598;7.668;2023-03-03T15:32:02;101793.47;;;11.49;40.53
29383;BME280;16365;51.598;7.668;2023-03-03T15:34:50;101791.53;;;11.50;40.77
29383;BME280;16365;51.598;7.668;2023-03-03T15:37:46;101785.97;;;11.50;41.40
29383;BME280;16365;51.598;7.668;2023-03-03T15:40:29;101789.28;;;11.52;40.88
29383;BME280;16365;51.598;7.668;2023-03-03T15:54:36;101774.88;;;11.50;40.64
29383;BME280;16365;51.598;7.668;2023-03-03T15:57:25;101779.59;;;11.49;41.06
29383;BME280;16365;51.598;7.668;2023-03-03T16:02:59;101770.75;;;11.47;40.79
29383;BME280;16365;51.598;7.668;2023-03-03T16:05:39;101765.00;;;11.44;40.15
29383;BME280;16365;51.598;7.668;2023-03-03T16:08:15;101777.75;;;11.45;40.52
29383;BME280;16365;51.598;7.668;2023-03-03T16:11:11;101773.09;;;11.40;40.70
29383;BME280;16365;51.598;7.668;2023-03-03T16:13:57;101766.22;;;11.38;41.08
29383;BME280;16365;51.598;7.668;2023-03-03T16:25:19;101774.34;;;11.34;41.11
29383;BME280;16365;51.598;7.668;2023-03-03T16:30:45;101770.75;;;11.33;41.18
29383;BME280;16365;51.598;7.668;2023-03-03T16:33:23;101774.44;;;11.29;41.14
29383;BME280;16365;51.598;7.668;2023-03-03T16:36:11;101773.31;;;11.30;41.18
29383;BME280;16365;51.598;7.668;2023-03-03T16:38:43;101770.31;;;11.26;41.11
29383;BME280;16365;51.598;7.668;2023-03-03T16:41:22;101772.59;;;11.24;41.22
29383;BME280;16365;51.598;7.668;2023-03-03T16:44:07;101765.72;;;11.22;41.69
29383;BME280;16365;51.598;7.668;2023-03-03T16:46:40;101765.41;;;11.23;41.33
29383;BME280;16365;51.598;7.668;2023-03-03T16:49:17;101765.72;;;11.22;41.18
29383;BME280;16365;51.598;7.668;2023-03-03T16:51:55;101771.88;;;11.19;41.55
29383;BME280;16365;51.598;7.668;2023-03-03T16:54:46;101767.72;;;11.16;41.40